createdAt,value
2018-06-25T00:02:22.373Z,3.27
2018-06-25T00:04:50.963Z,3.97
2018-06-25T00:07:19.537Z,4.13
2018-06-25T00:09:48.115Z,2.50
2018-06-25T00:12:16.827Z,4.00
2018-06-25T00:14:45.452Z,2.83
2018-06-25T00:17:14.175Z,2.53
2018-06-25T00:19:42.938Z,3.03
2018-06-25T00:22:11.688Z,3.00
2018-06-25T00:24:40.329Z,3.17
2018-06-25T00:27:08.975Z,3.20
2018-06-25T00:29:37.614Z,3.00
2018-06-25T00:32:06.486Z,3.60
2018-06-25T00:34:35.213Z,3.60
2018-06-25T00:37:03.969Z,4.00
2018-06-25T00:39:32.630Z,4.13
2018-06-25T00:42:01.287Z,6.47
2018-06-25T00:44:29.937Z,3.47
2018-06-25T00:46:58.698Z,2.60
2018-06-25T00:49:27.412Z,3.27
2018-06-25T00:51:56.090Z,3.27
2018-06-25T00:54:24.793Z,3.30
2018-06-25T00:56:53.438Z,3.27
2018-06-25T00:59:33.209Z,5.07
2018-06-25T01:02:01.905Z,2.87
2018-06-25T01:04:30.591Z,3.00
2018-06-25T01:06:59.358Z,3.23
2018-06-25T01:09:28.098Z,2.70
2018-06-25T01:11:56.425Z,3.70
2018-06-25T01:14:25.072Z,3.47
2018-06-25T01:16:53.711Z,3.03
2018-06-25T01:19:22.472Z,3.30
2018-06-25T01:21:51.182Z,3.07
2018-06-25T01:24:20.160Z,3.30
2018-06-25T01:26:48.821Z,2.90
2018-06-25T01:29:18.013Z,2.57
2018-06-25T01:31:46.716Z,2.67
2018-06-25T01:34:15.373Z,9.50
2018-06-25T01:36:44.110Z,3.87
2018-06-25T01:39:12.738Z,3.40
2018-06-25T01:41:41.409Z,3.07
2018-06-25T01:44:10.137Z,2.80
2018-06-25T01:46:39.250Z,2.57
2018-06-25T01:49:08.145Z,2.43
2018-06-25T01:51:37.255Z,2.97
2018-06-25T01:54:06.020Z,2.40
2018-06-25T01:56:34.709Z,2.60
2018-06-25T01:59:03.395Z,2.67
2018-06-25T02:01:31.973Z,5.87
2018-06-25T02:04:00.623Z,3.63
2018-06-25T02:06:29.304Z,3.50
2018-06-25T02:08:57.999Z,2.77
2018-06-25T02:11:26.703Z,2.80
2018-06-25T02:13:55.471Z,4.50
2018-06-25T02:16:24.285Z,2.57
2018-06-25T02:18:52.923Z,2.70
2018-06-25T02:21:21.596Z,3.47
2018-06-25T02:23:50.298Z,3.63
2018-06-25T02:26:19.017Z,2.90
2018-06-25T02:28:47.711Z,3.67
2018-06-25T02:31:17.630Z,2.40
2018-06-25T02:33:46.345Z,3.60
2018-06-25T02:36:15.039Z,13.97
2018-06-25T02:38:44.088Z,4.43
2018-06-25T02:41:12.645Z,3.83
2018-06-25T02:43:41.442Z,3.10
2018-06-25T02:46:10.427Z,715.33
2018-06-25T02:48:39.119Z,2.50
2018-06-25T02:51:07.821Z,4.10
2018-06-25T02:53:36.437Z,2.77
2018-06-25T02:56:05.160Z,2.73
2018-06-25T02:58:33.886Z,2.13
2018-06-25T03:01:02.662Z,3.00
2018-06-25T03:03:31.437Z,2.13
2018-06-25T03:06:00.109Z,3.00
2018-06-25T03:08:28.865Z,2.33
2018-06-25T03:10:57.550Z,7.07
2018-06-25T03:13:26.246Z,2.20
2018-06-25T03:15:54.891Z,3.20
2018-06-25T03:18:23.542Z,2.60
2018-06-25T03:20:52.196Z,59.97
2018-06-25T03:23:20.869Z,18.73
2018-06-25T03:25:49.561Z,3.57
2018-06-25T03:28:18.437Z,3.00
2018-06-25T03:30:47.118Z,122.73
2018-06-25T03:33:15.850Z,1349.73
2018-06-25T03:35:44.561Z,1999.90
2018-06-25T03:38:13.201Z,1999.90
2018-06-25T03:40:41.866Z,1999.90
2018-06-25T03:43:10.552Z,1999.90
2018-06-25T03:45:39.287Z,1999.90
2018-06-25T03:48:07.961Z,1999.90
2018-06-25T03:50:36.622Z,1999.90
2018-06-25T03:53:05.648Z,1999.90
2018-06-25T03:55:34.319Z,1999.90
2018-06-25T03:58:02.989Z,1999.90
2018-06-25T04:00:31.606Z,1999.90
2018-06-25T04:03:00.229Z,1999.90
2018-06-25T04:05:29.165Z,1999.90
2018-06-25T04:07:57.765Z,1999.90
2018-06-25T04:10:26.451Z,1999.90
2018-06-25T04:12:55.185Z,1999.90
2018-06-25T04:15:23.879Z,1999.90
2018-06-25T04:17:52.580Z,716.00
2018-06-25T04:20:21.319Z,3.00
2018-06-25T04:22:50.013Z,2.93
2018-06-25T04:25:18.745Z,2.60
2018-06-25T04:27:47.403Z,3.17
2018-06-25T04:30:16.105Z,3.10
2018-06-25T04:32:44.733Z,2.37
2018-06-25T04:35:13.360Z,2.90
2018-06-25T04:37:42.008Z,4.23
2018-06-25T04:40:10.676Z,2.90
2018-06-25T04:42:39.311Z,2.93
2018-06-25T04:45:07.953Z,3.27
2018-06-25T04:47:36.581Z,3.50
2018-06-25T04:50:05.233Z,3.30
2018-06-25T04:52:33.943Z,3.90
2018-06-25T04:55:02.828Z,3.50
2018-06-25T04:57:31.522Z,3.10
2018-06-25T05:00:00.204Z,5.43
2018-06-25T05:02:28.852Z,4.67
2018-06-25T05:04:57.112Z,3.00
2018-06-25T05:07:25.921Z,3.27
2018-06-25T05:09:54.544Z,3.40
2018-06-25T05:12:23.249Z,3.50
2018-06-25T05:14:52.229Z,5.47
2018-06-25T05:17:20.905Z,4.17
2018-06-25T05:19:49.557Z,3.50
2018-06-25T05:22:18.193Z,3.20
2018-06-25T05:24:46.843Z,3.07
2018-06-25T05:27:15.527Z,2.73
2018-06-25T05:29:44.221Z,2.60
2018-06-25T05:32:12.873Z,4.17
2018-06-25T05:34:41.553Z,2.50
2018-06-25T05:37:10.198Z,4.97
2018-06-25T05:39:38.869Z,3.37
2018-06-25T05:42:08.057Z,7.33
2018-06-25T05:44:36.723Z,3.03
2018-06-25T05:47:05.413Z,3.40
2018-06-25T05:49:34.141Z,4.63
2018-06-25T05:52:02.810Z,552.27
2018-06-25T05:54:44.324Z,4.33
2018-06-25T05:57:16.493Z,6.17
2018-06-25T05:59:45.062Z,2.60
2018-06-25T06:02:14.200Z,4.13
2018-06-25T06:04:42.861Z,2.73
2018-06-25T06:07:11.710Z,2.73
2018-06-25T06:09:40.469Z,4.13
2018-06-25T06:12:09.125Z,4.60
2018-06-25T06:14:38.217Z,2.60
2018-06-25T06:17:06.918Z,2.63
2018-06-25T06:19:35.517Z,2.87
2018-06-25T06:22:04.242Z,2.50
2018-06-25T06:24:32.894Z,133.73
2018-06-25T06:27:01.503Z,2.23
2018-06-25T06:29:30.193Z,7.23
2018-06-25T06:31:58.871Z,2.67
2018-06-25T06:34:27.621Z,2.73
2018-06-25T06:36:56.225Z,2.00
2018-06-25T06:39:24.872Z,47.90
2018-06-25T06:41:53.663Z,2.27
2018-06-25T06:44:22.341Z,3.47
2018-06-25T06:46:51.042Z,2.33
2018-06-25T06:49:20.577Z,1.97
2018-06-25T06:51:49.247Z,2.00
2018-06-25T06:54:17.996Z,21.90
2018-06-25T06:56:46.689Z,22.33
2018-06-25T06:59:15.517Z,2.23
2018-06-25T07:01:44.137Z,112.77
2018-06-25T07:04:12.787Z,93.90
2018-06-25T07:06:41.398Z,3.27
2018-06-25T07:09:12.238Z,3.07
2018-06-25T07:11:41.085Z,1.70
2018-06-25T07:14:09.958Z,5.30
2018-06-25T07:16:39.697Z,1.90
2018-06-25T07:19:08.661Z,1.20
2018-06-25T07:21:37.669Z,155.37
2018-06-25T07:24:06.323Z,83.77
2018-06-25T07:26:34.993Z,2.10
2018-06-25T07:29:03.845Z,1.80
2018-06-25T07:31:32.595Z,1.47
2018-06-25T07:34:01.332Z,1.83
2018-06-25T07:36:30.010Z,1.90
2018-06-25T07:38:58.326Z,2.50
2018-06-25T07:41:26.985Z,1.80
2018-06-25T07:43:55.805Z,2.67
2018-06-25T07:46:24.461Z,1.40
2018-06-25T07:48:53.151Z,1.33
2018-06-25T07:51:27.483Z,1.20
2018-06-25T07:54:01.629Z,2.00
2018-06-25T07:56:30.417Z,3.00
2018-06-25T07:58:59.879Z,1.30
2018-06-25T08:01:41.620Z,2.03
2018-06-25T08:04:10.469Z,2.60
2018-06-25T08:06:40.532Z,7.90
2018-06-25T08:09:10.308Z,1.70
2018-06-25T08:11:42.677Z,2.40
2018-06-25T08:14:11.742Z,2.00
2018-06-25T08:16:40.506Z,1.50
2018-06-25T08:19:09.149Z,3.33
2018-06-25T08:21:37.825Z,1.30
2018-06-25T08:24:06.509Z,1.40
2018-06-25T08:26:35.285Z,1.87
2018-06-25T08:29:04.001Z,1.30
2018-06-25T08:31:32.669Z,1.80
2018-06-25T08:34:01.345Z,1.70
2018-06-25T08:36:30.053Z,1.53
2018-06-25T08:38:59.504Z,1.57
2018-06-25T08:41:28.160Z,2.60
2018-06-25T08:44:01.213Z,1.53
2018-06-25T08:46:30.417Z,1.73
2018-06-25T08:48:59.043Z,3.40
2018-06-25T08:51:28.106Z,1.97
2018-06-25T08:53:57.204Z,1.60
2018-06-25T08:56:25.926Z,1.53
2018-06-25T08:58:54.598Z,1.90
2018-06-25T09:01:23.394Z,1.60
2018-06-25T09:03:52.106Z,1.80
2018-06-25T09:06:20.762Z,1.70
2018-06-25T09:08:49.458Z,1.97
2018-06-25T09:11:18.190Z,1.23
2018-06-25T09:13:46.818Z,1.53
2018-06-25T09:16:15.597Z,3.73
2018-06-25T09:18:44.327Z,1.53
2018-06-25T09:21:12.957Z,1.40
2018-06-25T09:23:41.888Z,3.67
2018-06-25T09:26:10.853Z,3.30
2018-06-25T09:28:40.437Z,2.80
2018-06-25T09:31:09.169Z,3.60
2018-06-25T09:33:38.365Z,3.20
2018-06-25T09:36:07.385Z,3.87
2018-06-25T09:38:36.103Z,3.63
2018-06-25T09:41:04.883Z,2.90
2018-06-25T09:43:33.475Z,3.27
2018-06-25T09:46:02.160Z,3.27
2018-06-25T09:48:30.760Z,3.10
2018-06-25T09:51:01.198Z,3.27
2018-06-25T09:53:30.073Z,4.33
2018-06-25T09:55:59.085Z,2.83
2018-06-25T09:58:27.760Z,2.80
2018-06-25T10:01:01.478Z,3.37
2018-06-25T10:03:30.167Z,3.00
2018-06-25T10:05:58.919Z,2.90
2018-06-25T10:08:27.605Z,2.50
2018-06-25T10:10:56.328Z,2.40
2018-06-25T10:13:24.998Z,2.40
2018-06-25T10:15:53.783Z,2.60
2018-06-25T10:18:22.397Z,2.10
2018-06-25T10:20:50.990Z,2.00
2018-06-25T10:23:19.644Z,2.00
2018-06-25T10:25:48.261Z,2.43
2018-06-25T10:28:16.901Z,3.03
2018-06-25T10:30:45.556Z,3.30
2018-06-25T10:33:14.165Z,2.87
2018-06-25T10:35:43.098Z,2.70
2018-06-25T10:38:11.834Z,2.60
2018-06-25T10:40:40.517Z,2.00
2018-06-25T10:43:09.270Z,1.83
2018-06-25T10:45:37.905Z,2.40
2018-06-25T10:48:06.851Z,1.93
2018-06-25T10:50:36.181Z,2.13
2018-06-25T10:53:04.983Z,2.00
2018-06-25T10:55:33.643Z,2.00
2018-06-25T10:58:04.258Z,1.90
2018-06-25T11:00:33.998Z,2.83
2018-06-25T11:03:04.041Z,2.17
2018-06-25T11:05:32.781Z,2.27
2018-06-25T11:08:01.522Z,2.30
2018-06-25T11:10:30.271Z,2.60
2018-06-25T11:12:58.987Z,1.40
2018-06-25T11:15:27.621Z,1.57
2018-06-25T11:17:56.323Z,3.17
2018-06-25T11:20:24.970Z,1.60
2018-06-25T11:22:54.128Z,1.27
2018-06-25T11:25:22.801Z,1.17
2018-06-25T11:27:51.480Z,1.13
2018-06-25T11:30:20.153Z,1.60
2018-06-25T11:32:48.845Z,361.00
2018-06-25T11:35:17.442Z,1.53
2018-06-25T11:37:46.344Z,1.47
2018-06-25T11:40:15.257Z,1.60
2018-06-25T11:42:44.009Z,1.33
2018-06-25T11:45:12.718Z,1.40
2018-06-25T11:47:41.400Z,1.37
2018-06-25T11:50:10.065Z,1.50
2018-06-25T11:52:38.823Z,1.40
2018-06-25T11:55:07.584Z,1.57
2018-06-25T11:57:36.306Z,1.50
2018-06-25T12:00:05.930Z,1.60
2018-06-25T12:02:34.682Z,1.90
2018-06-25T12:05:03.348Z,2.33
2018-06-25T12:07:31.957Z,1.60
2018-06-25T12:10:00.664Z,1.57
2018-06-25T12:12:29.981Z,1.47
2018-06-25T12:14:59.601Z,1.43
2018-06-25T12:17:36.785Z,1.93
2018-06-25T12:20:05.921Z,1.87
2018-06-25T12:22:34.668Z,3.77
2018-06-25T12:25:03.418Z,1.23
2018-06-25T12:27:32.371Z,1.50
2018-06-25T12:30:02.949Z,1.07
2018-06-25T12:32:32.092Z,1.40
2018-06-25T12:35:05.647Z,1.70
2018-06-25T12:37:34.504Z,1.77
2018-06-25T12:40:03.551Z,1.53
2018-06-25T12:42:32.381Z,1.50
2018-06-25T12:45:07.695Z,2.03
2018-06-25T12:47:37.529Z,1.70
2018-06-25T12:50:06.523Z,1.57
2018-06-25T12:52:35.433Z,1.30
2018-06-25T12:55:04.637Z,1.30
2018-06-25T12:57:35.353Z,1.97
2018-06-25T13:00:05.161Z,1.43
2018-06-25T13:02:34.070Z,1.30
2018-06-25T13:05:03.086Z,1.80
2018-06-25T13:07:31.807Z,10.83
2018-06-25T13:10:01.241Z,1.10
2018-06-25T13:12:30.956Z,1.90
2018-06-25T13:14:59.672Z,1.60
2018-06-25T13:17:28.313Z,1.37
2018-06-25T13:19:57.238Z,1.30
2018-06-25T13:22:25.889Z,2.90
2018-06-25T13:24:54.488Z,1.20
2018-06-25T13:27:30.496Z,1.60
2018-06-25T13:29:59.230Z,8.53
2018-06-25T13:32:27.953Z,1.20
2018-06-25T13:34:56.663Z,1.10
2018-06-25T13:37:25.266Z,4.10
2018-06-25T13:40:04.408Z,1.10
2018-06-25T13:42:33.064Z,1.73
2018-06-25T13:45:01.770Z,1.20
2018-06-25T13:47:30.452Z,1.10
2018-06-25T13:49:59.101Z,2.10
2018-06-25T13:52:27.776Z,1.23
2018-06-25T13:54:56.050Z,2.80
2018-06-25T13:57:24.732Z,1.23
2018-06-25T13:59:53.345Z,1.10
2018-06-25T14:02:22.126Z,1.00
2018-06-25T14:04:50.785Z,1.10
2018-06-25T14:07:19.477Z,2.03
2018-06-25T14:09:48.229Z,1.33
2018-06-25T14:12:16.936Z,2.10
2018-06-25T14:14:45.585Z,6.90
2018-06-25T14:17:24.182Z,5.17
2018-06-25T14:19:52.887Z,1.10
2018-06-25T14:22:21.632Z,1.20
2018-06-25T14:24:54.516Z,0.90
2018-06-25T14:27:23.177Z,1.30
2018-06-25T14:29:57.380Z,1.67
2018-06-25T14:32:31.501Z,1.10
2018-06-25T14:35:05.323Z,1.53
2018-06-25T14:37:34.015Z,1.10
2018-06-25T14:40:02.743Z,2.50
2018-06-25T14:42:31.485Z,1.20
2018-06-25T14:45:00.118Z,1.00
2018-06-25T14:47:28.854Z,1.07
2018-06-25T14:49:57.522Z,1.00
2018-06-25T14:52:26.199Z,1.10
2018-06-25T14:54:54.900Z,6.10
2018-06-25T14:57:23.629Z,1.20
2018-06-25T14:59:52.276Z,2.87
2018-06-25T15:02:20.895Z,2.20
2018-06-25T15:04:49.589Z,1.00
2018-06-25T15:07:18.380Z,1.10
2018-06-25T15:09:47.293Z,0.90
2018-06-25T15:12:16.033Z,1.90
2018-06-25T15:14:44.702Z,1.00
2018-06-25T15:17:13.390Z,3.27
2018-06-25T15:19:42.093Z,0.93
2018-06-25T15:22:10.874Z,1.10
2018-06-25T15:24:39.433Z,1.90
2018-06-25T15:27:08.133Z,2.17
2018-06-25T15:29:36.775Z,1.03
2018-06-25T15:32:05.113Z,1.17
2018-06-25T15:34:33.737Z,1.27
2018-06-25T15:37:02.403Z,1.60
2018-06-25T15:39:30.769Z,0.70
2018-06-25T15:41:59.434Z,2.30
2018-06-25T15:44:28.072Z,0.90
2018-06-25T15:46:56.768Z,1.47
2018-06-25T15:49:25.512Z,5.50
2018-06-25T15:51:54.170Z,1.30
2018-06-25T15:54:22.820Z,0.80
2018-06-25T15:56:51.478Z,2.77
2018-06-25T15:59:20.270Z,8.70
2018-06-25T16:01:48.960Z,4.20
2018-06-25T16:04:17.750Z,1.47
2018-06-25T16:06:46.422Z,0.60
2018-06-25T16:09:22.165Z,3.00
2018-06-25T16:11:50.882Z,1.13
2018-06-25T16:14:19.696Z,0.80
2018-06-25T16:16:48.330Z,0.90
2018-06-25T16:19:16.969Z,3.20
2018-06-25T16:21:45.615Z,0.90
2018-06-25T16:24:14.401Z,1.23
2018-06-25T16:26:43.189Z,7.30
2018-06-25T16:29:12.006Z,1.23
2018-06-25T16:31:40.912Z,2.10
2018-06-25T16:34:09.825Z,2.20
2018-06-25T16:36:38.675Z,0.60
2018-06-25T16:39:10.363Z,14.13
2018-06-25T16:41:39.013Z,0.90
2018-06-25T16:44:08.057Z,1.97
2018-06-25T16:46:38.073Z,2.63
2018-06-25T16:49:14.258Z,292.10
2018-06-25T16:51:43.775Z,1.30
2018-06-25T16:54:12.905Z,8.67
2018-06-25T16:56:41.610Z,2.30
2018-06-25T16:59:10.226Z,0.70
2018-06-25T17:01:38.876Z,1.13
2018-06-25T17:04:07.606Z,0.70
2018-06-25T17:06:36.325Z,2.00
2018-06-25T17:09:08.677Z,1.27
2018-06-25T17:11:37.738Z,2.00
2018-06-25T17:14:20.173Z,3.60
2018-06-25T17:16:48.845Z,2.60
2018-06-25T17:19:17.496Z,1.73
2018-06-25T17:21:46.193Z,0.80
2018-06-25T17:24:14.857Z,0.77
2018-06-25T17:26:43.764Z,0.77
2018-06-25T17:29:12.384Z,0.80
2018-06-25T17:31:41.106Z,0.80
2018-06-25T17:34:09.850Z,0.63
2018-06-25T17:36:38.607Z,0.80
2018-06-25T17:39:09.193Z,1.07
2018-06-25T17:41:37.876Z,0.90
2018-06-25T17:44:06.525Z,0.83
2018-06-25T17:46:35.281Z,1.07
2018-06-25T17:49:03.978Z,2.20
2018-06-25T17:51:32.697Z,0.80
2018-06-25T17:54:01.338Z,0.87
2018-06-25T17:56:30.135Z,0.90
2018-06-25T17:58:58.711Z,0.77
2018-06-25T18:01:27.624Z,3.80
2018-06-25T18:03:56.355Z,1.43
2018-06-25T18:06:25.001Z,1.20
2018-06-25T18:08:53.747Z,1.20
2018-06-25T18:11:22.260Z,2.07
2018-06-25T18:13:50.958Z,1.20
2018-06-25T18:16:19.664Z,4.23
2018-06-25T18:18:48.430Z,8.50
2018-06-25T18:21:17.105Z,2.20
2018-06-25T18:23:46.069Z,1.40
2018-06-25T18:26:14.769Z,2.20
2018-06-25T18:28:43.846Z,1.00
2018-06-25T18:31:12.620Z,0.80
2018-06-25T18:33:41.482Z,0.97
2018-06-25T18:36:10.117Z,2.37
2018-06-25T18:38:38.891Z,0.90
2018-06-25T18:41:07.550Z,1.37
2018-06-25T18:43:35.870Z,5.80
2018-06-25T18:46:04.570Z,0.90
2018-06-25T18:48:33.176Z,0.90
2018-06-25T18:51:01.883Z,1.33
2018-06-25T18:53:30.537Z,1.00
2018-06-25T18:55:59.157Z,0.90
2018-06-25T18:58:27.434Z,0.83
2018-06-25T19:00:55.624Z,1.33
2018-06-25T19:03:24.297Z,0.93
2018-06-25T19:05:53.067Z,1.00
2018-06-25T19:08:22.359Z,0.90
2018-06-25T19:10:51.220Z,2.17
2018-06-25T19:13:19.848Z,2.10
2018-06-25T19:15:48.162Z,1.17
2018-06-25T19:18:16.940Z,1.00
2018-06-25T19:20:45.737Z,0.97
2018-06-25T19:23:14.355Z,0.90
2018-06-25T19:25:43.149Z,0.90
2018-06-25T19:28:11.818Z,1.23
2018-06-25T19:30:40.497Z,1.00
2018-06-25T19:33:09.300Z,4.27
2018-06-25T19:35:37.950Z,1.10
2018-06-25T19:38:06.735Z,1.00
2018-06-25T19:40:35.426Z,1.13
2018-06-25T19:43:04.090Z,1.30
2018-06-25T19:45:32.775Z,1.13
2018-06-25T19:48:01.504Z,2.87
2018-06-25T19:50:30.240Z,2.10
2018-06-25T19:52:58.930Z,2.30
2018-06-25T19:55:27.571Z,2.93
2018-06-25T19:57:55.868Z,1.10
2018-06-25T20:00:24.518Z,3.67
2018-06-25T20:02:53.142Z,1.50
2018-06-25T20:05:21.921Z,2.60
2018-06-25T20:07:50.555Z,1.57
2018-06-25T20:10:19.156Z,2.40
2018-06-25T20:12:47.771Z,1.30
2018-06-25T20:15:38.527Z,2.33
2018-06-25T20:18:07.290Z,5.37
2018-06-25T20:20:36.057Z,1.47
2018-06-25T20:23:04.818Z,2.60
2018-06-25T20:25:33.108Z,1.67
2018-06-25T20:28:01.799Z,2.10
2018-06-25T20:30:30.778Z,4.73
2018-06-25T20:32:59.425Z,1.97
2018-06-25T20:35:28.079Z,1.80
2018-06-25T20:37:56.750Z,5.67
2018-06-25T20:40:25.445Z,8.53
2018-06-25T20:42:54.133Z,4.47
2018-06-25T20:45:22.870Z,1.87
2018-06-25T20:47:51.546Z,2.60
2018-06-25T20:50:20.368Z,2.10
2018-06-25T20:52:48.966Z,2.50
2018-06-25T20:55:17.559Z,2.60
2018-06-25T20:57:46.282Z,2.23
2018-06-25T21:00:14.992Z,2.43
2018-06-25T21:02:43.781Z,1.60
2018-06-25T21:05:12.453Z,1.60
2018-06-25T21:07:41.150Z,1.83
2018-06-25T21:10:09.879Z,1.60
2018-06-25T21:12:38.527Z,2.53
2018-06-25T21:15:07.244Z,1.80
2018-06-25T21:17:35.906Z,1.80
2018-06-25T21:20:05.138Z,1.97
2018-06-25T21:22:33.839Z,3.67
2018-06-25T21:25:02.516Z,1.83
2018-06-25T21:27:31.142Z,2.17
2018-06-25T21:29:59.840Z,1.90
2018-06-25T21:32:28.502Z,4.70
2018-06-25T21:34:57.173Z,1.60
2018-06-25T21:37:25.867Z,5.87
2018-06-25T21:39:55.159Z,1.80
2018-06-25T21:42:23.845Z,4.00
2018-06-25T21:44:52.525Z,1.90
2018-06-25T21:47:21.808Z,1.70
2018-06-25T21:49:50.501Z,2.00
2018-06-25T21:52:19.162Z,1.80
2018-06-25T21:54:47.877Z,1.50
2018-06-25T21:57:16.529Z,2.17
2018-06-25T21:59:45.283Z,2.40
2018-06-25T22:02:13.961Z,1.70
2018-06-25T22:04:42.589Z,1.60
2018-06-25T22:07:11.233Z,2.80
2018-06-25T22:09:39.937Z,2.33
2018-06-25T22:12:09.141Z,1.90
2018-06-25T22:14:37.742Z,1.70
2018-06-25T22:17:06.689Z,1.70
2018-06-25T22:19:35.421Z,1.80
2018-06-25T22:22:16.945Z,3.40
2018-06-25T22:24:45.197Z,1.83
2018-06-25T22:27:13.903Z,1.93
2018-06-25T22:29:42.627Z,3.50
2018-06-25T22:32:11.630Z,1.97
2018-06-25T22:34:40.311Z,2.10
2018-06-25T22:37:09.061Z,3.10
2018-06-25T22:39:38.157Z,2.03
2018-06-25T22:42:06.850Z,3.13
2018-06-25T22:44:35.515Z,2.10
2018-06-25T22:47:04.226Z,1.80
2018-06-25T22:49:32.924Z,3.10
2018-06-25T22:52:01.556Z,2.57
2018-06-25T22:54:30.241Z,2.00
2018-06-25T22:56:58.973Z,1.83
2018-06-25T22:59:27.978Z,3.23
2018-06-25T23:01:56.622Z,2.00
2018-06-25T23:04:25.332Z,1.83
2018-06-25T23:06:54.072Z,2.10
2018-06-25T23:09:22.684Z,2.10
2018-06-25T23:11:51.364Z,3.13
2018-06-25T23:14:19.983Z,2.00
2018-06-25T23:16:48.747Z,2.80
2018-06-25T23:19:17.368Z,2.13
2018-06-25T23:21:49.857Z,2.00
2018-06-25T23:24:18.491Z,2.03
2018-06-25T23:26:47.136Z,2.50
2018-06-25T23:29:15.849Z,3.10
2018-06-25T23:31:44.595Z,2.20
2018-06-25T23:34:13.229Z,2.00
2018-06-25T23:36:41.819Z,2.50
2018-06-25T23:39:11.731Z,2.13
2018-06-25T23:41:40.745Z,2.30
2018-06-25T23:44:09.676Z,2.50
2018-06-25T23:46:38.301Z,2.60
2018-06-25T23:49:06.993Z,2.57
2018-06-25T23:51:35.770Z,2.10
2018-06-25T23:54:04.543Z,2.30
2018-06-25T23:56:33.222Z,2.40
2018-06-25T23:59:01.960Z,2.27
